Terminal Aerodrome Forecast
Issued by NWS

Home | Current Version | Previous Version | Text Only | Print | Product List | Glossary On
Versions: 1 2 3 4 5 6 7 8 9 10 11 12 13
000
FTUS45 KPSR 280525
TAFIWA
TAF
KIWA 280525Z 2806/2906 24005KT P6SM BKN250
     FM280900 14006KT P6SM SCT250
     FM281600 21012KT P6SM FEW050 BKN250
     FM282100 28025G32KT 6SM BLDU FEW250
     FM290400 31018G25KT P6SM SKC
      AMD LTD TO CLD VIS AND WIND TIL 281300=

USA.gov is the U.S. government's official web portal to all federal, state and local government web resources and services.